createdAt,value
2024-03-16T00:00:18.751Z,13.10
2024-03-16T00:02:46.002Z,13.00
2024-03-16T00:05:12.852Z,13.00
2024-03-16T00:07:39.656Z,13.00
2024-03-16T00:10:07.927Z,13.10
2024-03-16T00:12:36.042Z,13.00
2024-03-16T00:15:02.992Z,13.00
2024-03-16T00:17:29.902Z,13.00
2024-03-16T00:19:56.823Z,13.00
2024-03-16T00:22:23.695Z,13.00
2024-03-16T00:24:51.070Z,13.00
2024-03-16T00:27:19.236Z,13.00
2024-03-16T00:29:46.181Z,13.00
2024-03-16T00:32:13.052Z,13.00
2024-03-16T00:34:39.871Z,12.90
2024-03-16T00:37:06.801Z,12.90
2024-03-16T00:39:34.012Z,12.90
2024-03-16T00:42:01.009Z,12.90
2024-03-16T00:44:28.363Z,12.90
2024-03-16T00:46:55.273Z,12.90
2024-03-16T00:49:22.150Z,12.90
2024-03-16T00:51:49.075Z,12.90
2024-03-16T00:54:16.316Z,12.90
2024-03-16T00:56:44.852Z,12.80
2024-03-16T00:59:11.670Z,12.80
2024-03-16T01:01:38.751Z,12.80
2024-03-16T01:04:05.973Z,12.70
2024-03-16T01:06:33.026Z,12.70
2024-03-16T01:09:00.238Z,12.70
2024-03-16T01:11:27.396Z,12.70
2024-03-16T01:13:54.629Z,12.60
2024-03-16T01:16:21.559Z,12.60
2024-03-16T01:18:48.824Z,12.60
2024-03-16T01:21:16.252Z,12.50
2024-03-16T01:23:43.226Z,12.60
2024-03-16T01:26:10.843Z,12.50
2024-03-16T01:28:37.707Z,12.50
2024-03-16T01:31:04.906Z,12.50
2024-03-16T01:33:31.876Z,12.50
2024-03-16T01:35:58.745Z,12.50
2024-03-16T01:38:25.579Z,12.40
2024-03-16T01:40:52.487Z,12.40
2024-03-16T01:43:19.279Z,12.40
2024-03-16T01:45:46.959Z,12.40
2024-03-16T01:48:14.038Z,12.30
2024-03-16T01:50:42.262Z,12.20
2024-03-16T01:53:12.887Z,12.20
2024-03-16T01:55:39.850Z,12.20
2024-03-16T01:58:07.784Z,12.10
2024-03-16T02:00:35.388Z,12.00
2024-03-16T02:03:03.046Z,12.00
2024-03-16T02:05:30.393Z,11.90
2024-03-16T02:07:57.233Z,11.90
2024-03-16T02:10:24.016Z,11.80
2024-03-16T02:12:50.869Z,11.70
2024-03-16T02:15:17.750Z,11.80
2024-03-16T02:17:47.230Z,11.60
2024-03-16T02:20:17.266Z,11.60
2024-03-16T02:22:44.440Z,11.50
2024-03-16T02:25:14.291Z,11.50
2024-03-16T02:27:41.234Z,11.50
2024-03-16T02:30:11.749Z,11.40
2024-03-16T02:32:38.813Z,11.40
2024-03-16T02:35:09.138Z,11.40
2024-03-16T02:37:36.904Z,11.30
2024-03-16T02:40:07.118Z,11.30
2024-03-16T02:42:34.156Z,11.30
2024-03-16T02:45:00.952Z,11.20
2024-03-16T02:47:27.753Z,11.20
2024-03-16T02:49:54.545Z,11.10
2024-03-16T02:52:21.377Z,11.10
2024-03-16T02:54:48.160Z,11.00
2024-03-16T02:57:14.992Z,11.10
2024-03-16T02:59:41.932Z,11.00
2024-03-16T03:02:08.714Z,10.90
2024-03-16T03:04:35.647Z,10.90
2024-03-16T03:07:02.839Z,10.90
2024-03-16T03:09:30.505Z,10.80
2024-03-16T03:11:57.383Z,10.80
2024-03-16T03:14:24.166Z,10.80
2024-03-16T03:16:51.014Z,10.80
2024-03-16T03:19:17.853Z,10.80
2024-03-16T03:21:44.735Z,10.70
2024-03-16T03:24:11.512Z,10.70
2024-03-16T03:26:38.328Z,10.60
2024-03-16T03:29:06.072Z,10.60
2024-03-16T03:31:33.333Z,10.60
2024-03-16T03:34:00.184Z,10.50
2024-03-16T03:36:27.019Z,10.50
2024-03-16T03:38:53.978Z,10.50
2024-03-16T03:41:20.809Z,10.40
2024-03-16T03:44:00.639Z,10.40
2024-03-16T03:46:40.585Z,10.30
2024-03-16T03:49:16.202Z,10.40
2024-03-16T03:51:43.186Z,10.20
2024-03-16T03:54:10.060Z,10.20
2024-03-16T03:56:36.820Z,10.20
2024-03-16T03:59:03.656Z,10.20
2024-03-16T04:01:30.705Z,10.20
2024-03-16T04:03:58.453Z,10.20
2024-03-16T04:06:26.807Z,10.20
2024-03-16T04:08:53.587Z,10.10
2024-03-16T04:11:20.525Z,10.10
2024-03-16T04:13:47.371Z,10.10
2024-03-16T04:16:15.898Z,10.10
2024-03-16T04:18:43.138Z,10.10
2024-03-16T04:21:10.077Z,10.00
2024-03-16T04:23:36.958Z,10.00
2024-03-16T04:26:04.218Z,10.00
2024-03-16T04:28:31.127Z,10.00
2024-03-16T04:30:58.435Z,10.00
2024-03-16T04:33:25.415Z,10.00
2024-03-16T04:35:52.276Z,10.00
2024-03-16T04:38:19.130Z,10.00
2024-03-16T04:40:45.919Z,10.00
2024-03-16T04:43:12.908Z,10.00
2024-03-16T04:45:39.803Z,10.00
2024-03-16T04:48:06.729Z,10.00
2024-03-16T04:50:34.725Z,10.00
2024-03-16T04:53:01.642Z,9.90
2024-03-16T04:55:28.532Z,9.90
2024-03-16T04:57:55.448Z,9.90
2024-03-16T05:00:22.367Z,9.90
2024-03-16T05:02:49.549Z,9.90
2024-03-16T05:05:16.365Z,9.80
2024-03-16T05:07:43.109Z,9.80
2024-03-16T05:10:10.315Z,9.80
2024-03-16T05:12:37.262Z,9.80
2024-03-16T05:15:04.683Z,9.80
2024-03-16T05:17:32.868Z,9.80
2024-03-16T05:19:59.782Z,9.80
2024-03-16T05:22:26.772Z,9.80
2024-03-16T05:24:53.676Z,9.80
2024-03-16T05:27:20.553Z,9.80
2024-03-16T05:29:47.358Z,9.80
2024-03-16T05:32:14.285Z,9.70
2024-03-16T05:34:41.127Z,9.70
2024-03-16T05:37:08.046Z,9.70
2024-03-16T05:39:35.079Z,9.70
2024-03-16T05:42:01.970Z,9.70
2024-03-16T05:44:28.774Z,9.60
2024-03-16T05:46:55.566Z,9.50
2024-03-16T05:49:23.912Z,9.40
2024-03-16T05:51:52.105Z,9.40
2024-03-16T05:54:18.939Z,9.30
2024-03-16T05:56:45.746Z,9.30
2024-03-16T05:59:12.624Z,9.30
2024-03-16T06:01:39.481Z,9.20
2024-03-16T06:04:06.294Z,9.20
2024-03-16T06:06:33.500Z,9.20
2024-03-16T06:09:00.520Z,9.20
2024-03-16T06:11:27.785Z,9.20
2024-03-16T06:13:54.694Z,9.20
2024-03-16T06:16:23.069Z,9.10
2024-03-16T06:18:50.194Z,9.10
2024-03-16T06:21:16.956Z,9.10
2024-03-16T06:23:43.891Z,9.10
2024-03-16T06:26:18.125Z,9.10
2024-03-16T06:28:48.454Z,9.00
2024-03-16T06:31:15.558Z,9.10
2024-03-16T06:33:46.762Z,9.00
2024-03-16T06:36:13.746Z,9.00
2024-03-16T06:38:40.655Z,9.00
2024-03-16T06:41:07.434Z,9.00
2024-03-16T06:43:37.068Z,9.00
2024-03-16T06:46:06.771Z,9.10
2024-03-16T06:48:33.710Z,9.00
2024-03-16T06:51:00.600Z,9.10
2024-03-16T06:53:27.464Z,9.10
2024-03-16T06:55:56.312Z,9.10
2024-03-16T06:58:23.901Z,9.10
2024-03-16T07:00:50.686Z,9.10
2024-03-16T07:03:17.666Z,9.10
2024-03-16T07:05:44.450Z,9.10
2024-03-16T07:08:13.352Z,9.10
2024-03-16T07:10:40.307Z,9.10
2024-03-16T07:13:07.360Z,9.10
2024-03-16T07:15:34.392Z,9.10
2024-03-16T07:18:02.074Z,9.10
2024-03-16T07:20:28.940Z,9.20
2024-03-16T07:22:55.750Z,9.20
2024-03-16T07:25:22.773Z,9.20
2024-03-16T07:27:49.740Z,9.20
2024-03-16T07:30:19.105Z,9.20
2024-03-16T07:32:47.324Z,9.30
2024-03-16T07:35:14.444Z,9.30
2024-03-16T07:37:41.331Z,9.30
2024-03-16T07:40:14.732Z,9.30
2024-03-16T07:42:43.360Z,9.40
2024-03-16T07:45:10.670Z,9.40
2024-03-16T07:47:38.116Z,9.40
2024-03-16T07:50:07.048Z,9.40
2024-03-16T07:52:37.086Z,9.40
2024-03-16T07:55:08.086Z,9.50
2024-03-16T07:57:35.287Z,9.50
2024-03-16T08:00:02.218Z,9.60
2024-03-16T08:02:29.102Z,9.60
2024-03-16T08:04:55.860Z,9.70
2024-03-16T08:07:22.882Z,9.70
2024-03-16T08:09:49.936Z,9.70
2024-03-16T08:12:16.780Z,9.80
2024-03-16T08:14:43.702Z,9.80
2024-03-16T08:17:10.783Z,9.90
2024-03-16T08:19:39.909Z,9.90
2024-03-16T08:22:06.806Z,9.90
2024-03-16T08:24:33.816Z,9.90
2024-03-16T08:27:00.788Z,10.00
2024-03-16T08:29:28.017Z,10.00
2024-03-16T08:31:56.660Z,10.00
2024-03-16T08:34:23.997Z,10.00
2024-03-16T08:36:51.086Z,10.00
2024-03-16T08:39:18.234Z,10.00
2024-03-16T08:41:45.128Z,10.00
2024-03-16T08:44:11.932Z,10.00
2024-03-16T08:46:38.784Z,10.00
2024-03-16T08:49:05.765Z,10.00
2024-03-16T08:51:32.637Z,10.00
2024-03-16T08:53:59.509Z,9.90
2024-03-16T08:56:29.149Z,9.90
2024-03-16T08:58:56.592Z,9.90
2024-03-16T09:01:23.566Z,9.90
2024-03-16T09:03:50.657Z,10.00
2024-03-16T09:06:18.278Z,9.90
2024-03-16T09:08:45.245Z,10.00
2024-03-16T09:11:12.593Z,10.00
2024-03-16T09:13:39.437Z,10.00
2024-03-16T09:16:07.222Z,10.00
2024-03-16T09:18:35.616Z,10.00
2024-03-16T09:21:06.631Z,10.00
2024-03-16T09:23:33.574Z,10.00
2024-03-16T09:26:02.268Z,10.10
2024-03-16T09:28:29.051Z,10.10
2024-03-16T09:30:57.261Z,10.10
2024-03-16T09:33:24.357Z,10.20
2024-03-16T09:35:53.873Z,10.20
2024-03-16T09:38:20.852Z,10.30
2024-03-16T09:40:53.410Z,10.30
